• Join FlightAware (Why Join?)
  • Login
  • US Flag 
02:39PM EST


 

Airport Tracker/Info


-or-


 

Live Flight TrackerFlight Track Log ✈ JAL309 ✈ 03-May-2013 ✈ RJTT / HND - RJFF / FUK

Flight Track Log - Related Links

Times and Time Zones

All times are in EDT time to prevent confusion due to time zone crossing. See the JAL309 flight status page for this flight to view local times or setup timezone preferences in your user account.

Time Position Orientation Groundspeed Altitude Reporting Facility
EDT Latitude Longitude Course Direction KTS MPH feet Rate Location/Type
08:43PM 35.5360 139.8170 39° Northeast 150 173 100  Level FlightAware
08:43PM 35.5470 139.8300 44° Northeast 158 182 1,100 3,000 Climbing FlightAware
08:43PM 35.5480 139.8380 81° East 160 184 1,600 2,700 Climbing FlightAware
08:44PM 35.5410 139.8660 107° East 170 196 2,900 2,400 Climbing FlightAware
08:44PM 35.5310 139.8930 114° Southeast 187 215 4,000 1,620 Climbing FlightAware
08:45PM 35.5160 139.9120 134° Southeast 215 247 4,400 1,200 Climbing FlightAware
08:45PM 35.5050 139.9150 167° South 225 259 4,700 1,800 Climbing FlightAware
08:45PM 35.4830 139.9060 198° South 254 292 5,300 1,860 Climbing FlightAware
08:45PM 35.4740 139.8940 227° Southwest 258 297 5,800 3,360 Climbing FlightAware
08:46PM 35.4690 139.8740 253° West 258 297 6,700 3,900 Climbing FlightAware
08:46PM 35.4730 139.8410 278° West 260 299 8,100 3,300 Climbing FlightAware
08:46PM 35.4870 139.8170 306° West 266 306 9,200 2,880 Climbing FlightAware
08:47PM 35.5190 139.7690 309° West 286 329 11,000 2,280 Climbing FlightAware
08:48PM 35.5600 139.7050 308° West 318 366 12,500 2,400 Climbing FlightAware
08:48PM 35.5800 139.6350 289° West 326 375 14,400 2,760 Climbing FlightAware
08:49PM 35.5740 139.5610 264° West 332 382 16,200 2,220 Climbing FlightAware
08:50PM 35.5620 139.4750 260° West 337 388 17,600 1,500 Climbing FlightAware
08:50PM 35.5560 139.4150 263° West 338 389 18,200 1,020 Climbing FlightAware
08:51PM 35.5480 139.3260 264° West 348 400 19,000 960 Climbing FlightAware
08:52PM 35.5400 139.2460 263° West 345 397 19,700 960 Climbing FlightAware
08:53PM 35.5320 139.1690 263° West 353 406 20,400 1,020 Climbing FlightAware
08:53PM 35.5240 139.0900 263° West 359 413 21,000 1,020 Climbing FlightAware
08:54PM 35.5160 139.0140 263° West 360 414 21,700 960 Climbing FlightAware
08:55PM 35.5050 138.9050 263° West 364 419 22,600 960 Climbing FlightAware
08:55PM 35.4960 138.8220 262° West 364 419 23,300 960 Climbing FlightAware
08:56PM 35.4890 138.7520 263° West 366 421 23,800 1,020 Climbing FlightAware
08:57PM 35.4790 138.6550 263° West 370 426 24,700 1,020 Climbing FlightAware
08:58PM 35.4680 138.5580 262° West 377 434 25,400 1,020 Climbing FlightAware
08:58PM 35.4600 138.4800 263° West 383 441 26,100 1,020 Climbing FlightAware
08:59PM 35.4500 138.3850 263° West 384 442 26,800 960 Climbing FlightAware
09:00PM 35.4400 138.2980 262° West 381 438 27,500 1,140 Climbing FlightAware
09:01PM 35.4270 138.1770 263° West 388 447 28,700 1,380 Climbing FlightAware
09:01PM 35.4150 138.0700 262° West 391 450 30,000 1,740 Climbing FlightAware
09:02PM 35.4070 137.9920 263° West 390 449 31,200 1,680 Climbing FlightAware
09:03PM 35.3970 137.9100 262° West 388 447 32,300 1,740 Climbing FlightAware
09:03PM 35.3840 137.7930 262° West 388 447 33,700 1,740 Climbing FlightAware
09:04PM 35.3750 137.7110 262° West 383 441 34,800 1,560 Climbing FlightAware
09:05PM 35.3650 137.6240 262° West 379 436 35,800 960 Climbing FlightAware
09:05PM 35.3540 137.5240 262° West 392 451 36,200 600 Climbing FlightAware
09:06PM 35.3430 137.4380 261° West 397 457 36,700 960 Climbing FlightAware
09:07PM 35.3320 137.3360 262° West 394 453 37,600 960 Climbing FlightAware
09:08PM 35.3210 137.2500 261° West 395 455 38,100 540 Climbing FlightAware
09:08PM 35.3100 137.1480 263° West 403 464 38,400 420 Climbing FlightAware
09:09PM 35.2990 137.0580 262° West 410 472 38,700 480 Climbing FlightAware
09:10PM 35.2870 136.9640 261° West 414 476 39,100 720 Climbing FlightAware
09:10PM 35.2750 136.8630 262° West 407 468 39,800 600 Climbing FlightAware
09:11PM 35.2640 136.7720 262° West 406 467 40,000 120 Climbing FlightAware
09:12PM 35.2520 136.6710 262° West 408 470 40,000  Level FlightAware
09:12PM 35.2410 136.5850 261° West 409 471 40,000  Level FlightAware
09:13PM 35.2310 136.5030 262° West 409 471 40,000  Level FlightAware
09:14PM 35.2180 136.3950 262° West 411 473 40,000  Level FlightAware
09:15PM 35.2040 136.2910 261° West 414 476 40,000  Level FlightAware
09:15PM 35.1910 136.1870 261° West 415 478 40,000  Level FlightAware
09:16PM 35.1800 136.0950 262° West 416 479 40,000  Level FlightAware
09:16PM 35.1710 136.0260 261° West 417 480 40,000  Level FlightAware
09:17PM 35.1590 135.9330 261° West 416 479 40,000  Level FlightAware
09:18PM 35.1470 135.8410 261° West 417 480 40,000  Level FlightAware
09:19PM 35.1330 135.7400 260° West 417 480 40,000  Level FlightAware
09:19PM 35.1210 135.6470 261° West 419 482 40,000  Level FlightAware
09:20PM 35.1070 135.5380 261° West 418 481 40,000  Level FlightAware
09:21PM 35.0950 135.4480 261° West 418 481 40,000  Level FlightAware
09:21PM 35.0830 135.3570 261° West 417 480 40,000  Level FlightAware
09:22PM 35.0700 135.2660 260° West 418 481 40,000  Level FlightAware
09:23PM 35.0550 135.1550 261° West 419 482 40,000  Level FlightAware
09:23PM 35.0430 135.0660 261° West 419 482 40,000  Level FlightAware
09:24PM 35.0290 134.9600 261° West 420 483 40,000  Level FlightAware
09:25PM 35.0160 134.8700 260° West 419 482 40,000  Level FlightAware
09:26PM 35.0020 134.7640 261° West 417 480 40,000  Level FlightAware
09:26PM 34.9870 134.6670 259° West 417 480 40,000  Level FlightAware
09:27PM 34.9700 134.5820 256° West 416 479 40,000  Level FlightAware
09:28PM 34.9490 134.4730 257° West 413 475 40,000  Level FlightAware
09:28PM 34.9320 134.3910 256° West 411 473 40,000  Level FlightAware
09:29PM 34.9130 134.2950 256° West 409 471 40,000  Level FlightAware
09:30PM 34.8930 134.1930 257° West 407 468 40,000  Level FlightAware
09:30PM 34.8730 134.0950 256° West 406 467 40,000  Level FlightAware
09:31PM 34.8550 134.0050 256° West 405 466 40,000  Level FlightAware
09:32PM 34.8370 133.9170 256° West 403 464 40,000  Level FlightAware
09:33PM 34.8170 133.8180 256° West 404 465 40,000  Level FlightAware
09:33PM 34.7980 133.7310 255° West 403 464 40,000  Level FlightAware
09:34PM 34.7790 133.6420 255° West 403 464 40,000  Level FlightAware
09:35PM 34.7590 133.5450 256° West 403 464 40,000  Level FlightAware
09:35PM 34.7400 133.4560 255° West 404 465 40,000  Level FlightAware
09:36PM 34.7120 133.3260 255° West 404 465 40,000  Level FlightAware
09:37PM 34.6930 133.2380 255° West 404 465 40,000  Level FlightAware
09:38PM 34.6740 133.1490 255° West 402 463 40,000  Level FlightAware
09:38PM 34.6530 133.0510 255° West 402 463 40,000  Level FlightAware
09:39PM 34.6330 132.9620 255° West 404 465 40,000  Level FlightAware
09:40PM 34.6140 132.8760 255° West 405 466 40,000  Level FlightAware
09:40PM 34.5930 132.7770 256° West 407 468 40,000  Level FlightAware
09:41PM 34.5710 132.6760 255° West 407 468 40,000  Level FlightAware
09:42PM 34.5520 132.5910 255° West 404 465 40,000  Level FlightAware
09:43PM 34.5310 132.4960 255° West 400 460 40,000  Level FlightAware
09:43PM 34.5100 132.4020 255° West 397 457 40,000  Level FlightAware
09:44PM 34.4840 132.2860 255° West 397 457 40,000  Level FlightAware
09:45PM 34.4650 132.2050 254° West 398 458 40,000 -900 Level FlightAware
09:46PM 34.4440 132.1120 255° West 402 463 38,800 -1,980 Descending FlightAware
09:47PM 34.4150 131.9820 255° West 388 447 36,700 -2,280 Descending FlightAware
09:47PM 34.3960 131.9000 254° West 387 445 35,000 -3,540 Descending FlightAware
09:48PM 34.3740 131.8040 255° West 395 455 31,700 -3,720 Descending FlightAware
09:49PM 34.3540 131.7170 254° West 391 450 29,800 -2,880 Descending FlightAware
09:49PM 34.3340 131.6280 255° West 395 455 27,700 -2,580 Descending FlightAware
09:50PM 34.3170 131.5540 254° West 388 447 26,400 -2,340 Descending FlightAware
09:51PM 34.2930 131.4510 254° West 379 436 24,400 -2,340 Descending FlightAware
09:51PM 34.2740 131.3720 254° West 369 425 22,900 -2,400 Descending FlightAware
09:52PM 34.2530 131.2830 254° West 364 419 21,000 -2,520 Descending FlightAware
09:53PM 34.2380 131.2150 255° West 360 414 19,600 -2,520 Descending FlightAware
09:54PM 34.2170 131.1280 254° West 355 409 17,700 -1,740 Descending FlightAware
09:54PM 34.1980 131.0460 254° West 323 372 17,000 -660 Descending FlightAware
09:55PM 34.1740 130.9840 245° Southwest 293 337 16,800 -900 Descending FlightAware
09:56PM 34.1420 130.9240 237° Southwest 283 326 15,800 -1,440 Descending FlightAware
09:56PM 34.1130 130.8710 237° Southwest 280 322 14,800 -1,440 Descending FlightAware
09:57PM 34.0970 130.8140 251° West 273 314 13,900 -1,140 Descending FlightAware
09:58PM 34.0870 130.7460 260° West 276 318 13,200 -900 Descending FlightAware
09:58PM 34.0770 130.6840 259° West 276 318 12,700 -660 Descending FlightAware
09:59PM 34.0670 130.6170 260° West 273 314 12,300 -660 Descending FlightAware
10:00PM 34.0580 130.5580 260° West 272 313 11,800 -900 Descending FlightAware
10:01PM 34.0490 130.4900 261° West 270 311 11,100 -900 Descending FlightAware
10:01PM 34.0560 130.4390 279° West 264 304 10,600 -960 Descending FlightAware
10:02PM 34.0650 130.3890 282° West 265 305 10,000 -1,140 Descending FlightAware
10:02PM 34.0700 130.3610 282° West 264 304 9,600 -1,140 Descending FlightAware
10:03PM 34.0790 130.3110 282° West 255 293 9,000 -720 Descending FlightAware
10:03PM 34.0850 130.2780 282° West 233 268 8,900 -600 Descending FlightAware
10:04PM 34.0820 130.2220 266° West 222 255 8,300 -900 Descending FlightAware
10:04PM 34.0750 130.1920 254° West 224 258 7,900 -1,080 Descending FlightAware
10:05PM 34.0660 130.1770 234° Southwest 230 265 7,600 -780 Descending FlightAware
10:05PM 34.0500 130.1560 227° Southwest 232 267 7,400 -540 Descending FlightAware
10:06PM 34.0200 130.1150 229° Southwest 225 259 7,000 -480 Descending FlightAware
10:07PM 33.9660 130.0450 227° Southwest 235 270 6,500 -420 Descending FlightAware
10:07PM 33.9610 130.0420 206° Southwest 229 264 6,500 -600 Level FlightAware
10:08PM 33.9070 130.0480 175° South 234 269 6,000 -420 Descending FlightAware
10:08PM 33.8800 130.0530 171° South 234 269 6,000 -120 Level FlightAware
10:09PM 33.8690 130.0550 171° South 222 255 5,900 -480 Descending FlightAware
10:09PM 33.8200 130.0650 170° South 213 245 5,400 -780 Descending FlightAware
10:10PM 33.7960 130.0690 172° South 213 245 5,000 -480 Descending FlightAware
10:10PM 33.7740 130.0540 210° Southwest 206 237 5,000  Level FlightAware
10:11PM 33.7590 130.0330 229° Southwest 206 237 5,000  Level FlightAware
10:12PM 33.7310 129.9920 231° Southwest 206 237 5,000 -360 Level FlightAware
10:12PM 33.6910 130.0030 167° South 219 252 4,600 -600 Descending FlightAware
10:12PM 33.6690 130.0150 156° South 212 244 4,500 -300 Descending FlightAware
10:13PM 33.6640 130.0250 121° Southeast 210 242 4,400 -480 Descending FlightAware
10:13PM 33.6630 130.0400 95° East 209 241 4,300 -780 Descending FlightAware
10:13PM 33.6660 130.0680 83° East 209 241 3,900 -960 Descending FlightAware
10:14PM 33.6670 130.0870 86° East 211 243 3,600 -1,200 Descending FlightAware
10:14PM 33.6710 130.1250 83° East 212 244 3,000 -960 Descending FlightAware
10:14PM 33.6730 130.1420 82° East 210 242 2,900 -180 Descending FlightAware
10:15PM 33.6740 130.1570 85° East 208 239 2,900  Level FlightAware
10:15PM 33.6790 130.2010 82° East 207 238 2,900 -600 Level FlightAware
10:16PM 33.6830 130.2330 81° East 206 237 2,300 -1,140 Descending FlightAware
10:16PM 33.6770 130.2650 103° East 203 234 1,800 -660 Descending FlightAware
10:17PM 33.6670 130.2900 116° Southeast 202 232 1,700 -120 Descending FlightAware
10:17PM 33.6540 130.3140 123° Southeast 200 230 1,700 -300 Level FlightAware
10:18PM 33.6300 130.3430 135° Southeast 186 214 1,400 -360 Descending FlightAware
10:18PM 33.6210 130.3540 134° Southeast 179 206 1,400 60 Level FlightAware
10:19PM 33.6000 130.3760 139° Southeast 179 206 1,500  Climbing FlightAware
10:19PM 33.5800 130.3980 137° Southeast 183 211 1,400 -180 Descending FlightAware
10:19PM 33.5720 130.4040 148° Southeast 181 208 1,400 -420 Level FlightAware
10:22PM 33.5866 130.4502 69° East  Level Estimated
10:22PM 33.5820 130.4520 69° East 129 148 100  Level FlightAware